createdAt,value
2023-02-19T00:01:44.810Z,56.96
2023-02-19T00:04:21.395Z,59.36
2023-02-19T00:06:48.699Z,61.96
2023-02-19T00:09:17.628Z,63.37
2023-02-19T00:11:45.602Z,59.60
2023-02-19T00:14:17.453Z,56.95
2023-02-19T00:16:43.987Z,59.38
2023-02-19T00:19:14.676Z,61.83
2023-02-19T00:21:41.272Z,63.81
2023-02-19T00:24:10.025Z,60.66
2023-02-19T00:26:39.274Z,56.96
2023-02-19T00:29:05.897Z,58.56
2023-02-19T00:31:34.877Z,61.22
2023-02-19T00:34:04.900Z,63.45
2023-02-19T00:36:35.272Z,60.67
2023-02-19T00:39:02.596Z,57.02
2023-02-19T00:41:29.950Z,58.68
2023-02-19T00:44:06.100Z,61.18
2023-02-19T00:46:38.515Z,63.47
2023-02-19T00:49:07.101Z,60.53
2023-02-19T00:51:37.365Z,57.00
2023-02-19T00:54:05.503Z,58.64
2023-02-19T00:56:32.131Z,61.19
2023-02-19T00:58:58.623Z,63.50
2023-02-19T01:01:25.151Z,61.25
2023-02-19T01:03:51.767Z,57.29
2023-02-19T01:06:19.956Z,58.53
2023-02-19T01:08:46.747Z,61.08
2023-02-19T01:11:14.088Z,63.44
2023-02-19T01:13:41.377Z,61.23
2023-02-19T01:16:13.035Z,57.50
2023-02-19T01:18:40.426Z,58.72
2023-02-19T01:21:16.653Z,61.36
2023-02-19T01:23:44.166Z,63.55
2023-02-19T01:26:20.213Z,60.60
2023-02-19T01:28:47.696Z,57.43
2023-02-19T01:31:19.663Z,59.40
2023-02-19T01:33:49.141Z,62.07
2023-02-19T01:36:15.959Z,63.77
2023-02-19T01:38:43.135Z,60.43
2023-02-19T01:41:16.032Z,56.66
2023-02-19T01:44:01.950Z,58.05
2023-02-19T01:46:36.555Z,60.84
2023-02-19T01:49:26.914Z,63.05
2023-02-19T01:52:31.119Z,61.67
2023-02-19T01:54:58.434Z,57.18
2023-02-19T01:57:29.446Z,58.83
2023-02-19T02:00:03.358Z,61.26
2023-02-19T02:02:29.963Z,63.45
2023-02-19T02:04:57.711Z,60.87
2023-02-19T02:07:42.690Z,56.96
2023-02-19T02:10:21.536Z,58.73
2023-02-19T02:12:56.755Z,61.37
2023-02-19T02:15:28.503Z,63.63
2023-02-19T02:18:36.234Z,60.84
2023-02-19T02:21:43.874Z,56.69
2023-02-19T02:24:41.412Z,59.37
2023-02-19T02:27:39.169Z,62.21
2023-02-19T02:30:21.510Z,62.57
2023-02-19T02:32:52.832Z,58.17
2023-02-19T02:35:27.918Z,57.15
2023-02-19T02:37:59.890Z,59.70
2023-02-19T02:40:26.569Z,62.11
2023-02-19T02:42:57.911Z,63.42
2023-02-19T02:45:35.238Z,59.93
2023-02-19T02:48:30.763Z,56.72
2023-02-19T02:51:17.563Z,59.09
2023-02-19T02:54:07.020Z,61.64
2023-02-19T02:56:34.698Z,63.64
2023-02-19T02:59:03.752Z,60.61
2023-02-19T03:01:59.340Z,56.84
2023-02-19T03:05:11.108Z,58.61
2023-02-19T03:07:47.635Z,61.55
2023-02-19T03:10:19.362Z,63.84
2023-02-19T03:13:05.370Z,61.16
2023-02-19T03:15:56.049Z,57.07
2023-02-19T03:18:41.704Z,59.00
2023-02-19T03:21:09.532Z,61.55
2023-02-19T03:23:55.319Z,63.99
2023-02-19T03:26:23.310Z,61.09
2023-02-19T03:29:09.380Z,57.27
2023-02-19T03:31:38.132Z,58.63
2023-02-19T03:34:13.754Z,61.13
2023-02-19T03:36:45.665Z,63.56
2023-02-19T03:39:15.185Z,61.52
2023-02-19T03:42:00.024Z,57.76
2023-02-19T03:44:35.881Z,58.84
2023-02-19T03:47:31.019Z,61.43
2023-02-19T03:50:25.883Z,63.75
2023-02-19T03:53:47.754Z,60.27
2023-02-19T03:56:47.370Z,57.35
2023-02-19T03:59:21.444Z,60.29
2023-02-19T04:01:59.794Z,62.80
2023-02-19T04:04:37.929Z,62.97
2023-02-19T04:07:05.055Z,59.08
2023-02-19T04:09:42.789Z,57.41
2023-02-19T04:12:10.595Z,59.87
2023-02-19T04:15:13.999Z,62.34
2023-02-19T04:17:49.352Z,63.08
2023-02-19T04:20:16.779Z,58.59
2023-02-19T04:22:43.436Z,56.89
2023-02-19T04:25:10.093Z,59.54
2023-02-19T04:27:40.166Z,61.92
2023-02-19T04:30:12.025Z,63.74
2023-02-19T04:32:38.598Z,60.87
2023-02-19T04:35:05.720Z,57.42
2023-02-19T04:37:32.238Z,58.69
2023-02-19T04:39:58.797Z,61.28
2023-02-19T04:42:25.381Z,63.47
2023-02-19T04:44:52.231Z,61.24
2023-02-19T04:47:18.777Z,57.69
2023-02-19T04:49:45.684Z,58.86
2023-02-19T04:52:12.774Z,61.42
2023-02-19T04:54:39.383Z,63.49
2023-02-19T04:57:06.263Z,60.94
2023-02-19T04:59:32.960Z,57.47
2023-02-19T05:01:59.500Z,58.91
2023-02-19T05:04:26.149Z,61.36
2023-02-19T05:06:52.762Z,63.44
2023-02-19T05:09:19.399Z,60.85
2023-02-19T05:11:45.972Z,57.38
2023-02-19T05:14:12.471Z,58.71
2023-02-19T05:16:38.988Z,61.38
2023-02-19T05:19:05.546Z,63.35
2023-02-19T05:21:32.076Z,60.62
2023-02-19T05:23:58.643Z,57.46
2023-02-19T05:26:26.059Z,58.94
2023-02-19T05:28:52.966Z,61.54
2023-02-19T05:31:20.336Z,63.72
2023-02-19T05:33:50.339Z,60.94
2023-02-19T05:36:18.937Z,57.41
2023-02-19T05:38:45.545Z,58.97
2023-02-19T05:41:16.442Z,61.70
2023-02-19T05:43:44.834Z,63.71
2023-02-19T05:46:14.764Z,60.65
2023-02-19T05:48:41.700Z,57.54
2023-02-19T05:51:12.368Z,59.45
2023-02-19T05:53:39.921Z,61.98
2023-02-19T05:56:35.008Z,64.13
2023-02-19T05:59:13.728Z,60.83
2023-02-19T06:01:40.315Z,57.27
2023-02-19T06:04:06.979Z,58.96
2023-02-19T06:06:33.560Z,61.51
2023-02-19T06:09:00.102Z,63.38
2023-02-19T06:11:28.538Z,61.21
2023-02-19T06:13:55.077Z,57.70
2023-02-19T06:16:21.771Z,58.65
2023-02-19T06:18:48.934Z,61.27
2023-02-19T06:21:17.185Z,62.81
2023-02-19T06:23:44.206Z,60.47
2023-02-19T06:26:21.265Z,57.26
2023-02-19T06:28:50.596Z,58.98
2023-02-19T06:31:19.569Z,61.19
2023-02-19T06:33:46.497Z,63.22
2023-02-19T06:36:16.884Z,61.39
2023-02-19T06:38:44.138Z,57.57
2023-02-19T06:41:12.239Z,58.51
2023-02-19T06:43:39.095Z,60.41
2023-02-19T06:46:07.002Z,63.16
2023-02-19T06:48:34.593Z,61.07
2023-02-19T06:51:01.292Z,57.73
2023-02-19T06:53:28.081Z,57.93
2023-02-19T06:56:06.841Z,60.12
2023-02-19T06:58:34.912Z,62.12
2023-02-19T07:01:02.125Z,63.95
2023-02-19T07:03:28.825Z,61.72
2023-02-19T07:05:59.014Z,57.17
2023-02-19T07:08:26.355Z,57.93
2023-02-19T07:10:58.083Z,60.17
2023-02-19T07:13:26.296Z,62.22
2023-02-19T07:16:00.214Z,63.16
2023-02-19T07:18:27.335Z,60.55
2023-02-19T07:20:54.026Z,57.02
2023-02-19T07:23:20.696Z,58.66
2023-02-19T07:25:47.381Z,60.89
2023-02-19T07:28:14.087Z,62.28
2023-02-19T07:30:41.162Z,63.35
2023-02-19T07:33:10.368Z,60.54
2023-02-19T07:35:37.257Z,56.63
2023-02-19T07:38:03.914Z,57.29
2023-02-19T07:40:30.465Z,59.33
2023-02-19T07:42:59.713Z,61.57
2023-02-19T07:45:26.634Z,62.91
2023-02-19T07:47:53.363Z,60.26
2023-02-19T07:50:19.899Z,56.04
2023-02-19T07:52:46.602Z,57.52
2023-02-19T07:55:13.517Z,59.93
2023-02-19T07:57:40.183Z,61.79
2023-02-19T08:00:07.395Z,63.07
2023-02-19T08:02:52.811Z,60.38
2023-02-19T08:05:19.446Z,56.00
2023-02-19T08:07:46.107Z,57.40
2023-02-19T08:10:31.001Z,60.05
2023-02-19T08:13:17.737Z,61.75
2023-02-19T08:16:16.099Z,63.47
2023-02-19T08:18:46.953Z,59.85
2023-02-19T08:21:14.175Z,55.93
2023-02-19T08:23:40.876Z,57.25
2023-02-19T08:26:09.416Z,59.26
2023-02-19T08:28:36.152Z,61.00
2023-02-19T08:31:06.443Z,61.82
2023-02-19T08:33:33.812Z,62.72
2023-02-19T08:36:07.022Z,58.69
2023-02-19T08:38:35.334Z,56.45
2023-02-19T08:41:12.298Z,58.36
2023-02-19T08:43:40.435Z,60.19
2023-02-19T08:46:09.488Z,61.50
2023-02-19T08:48:37.364Z,63.19
2023-02-19T08:51:07.730Z,60.26
2023-02-19T08:53:36.957Z,56.27
2023-02-19T08:56:11.676Z,56.86
2023-02-19T08:58:38.862Z,58.79
2023-02-19T09:01:16.122Z,60.04
2023-02-19T09:03:43.115Z,61.36
2023-02-19T09:06:18.998Z,62.07
2023-02-19T09:08:45.780Z,62.70
2023-02-19T09:11:13.162Z,62.33
2023-02-19T09:13:40.008Z,58.04
2023-02-19T09:16:07.408Z,57.57
2023-02-19T09:18:34.187Z,59.14
2023-02-19T09:21:03.907Z,60.88
2023-02-19T09:23:33.821Z,61.07
2023-02-19T09:26:02.703Z,62.43
2023-02-19T09:28:30.053Z,60.58
2023-02-19T09:30:57.129Z,56.95
2023-02-19T09:33:23.924Z,57.97
2023-02-19T09:35:50.614Z,58.55
2023-02-19T09:38:21.809Z,60.33
2023-02-19T09:40:49.842Z,60.18
2023-02-19T09:43:20.738Z,60.28
2023-02-19T09:45:48.178Z,60.49
2023-02-19T09:48:15.215Z,60.69
2023-02-19T09:50:48.137Z,59.73
2023-02-19T09:53:20.688Z,57.82
2023-02-19T09:55:50.150Z,56.20
2023-02-19T09:58:35.754Z,54.81
2023-02-19T10:01:04.637Z,54.78
2023-02-19T10:03:40.026Z,55.45
2023-02-19T10:06:29.220Z,57.22
2023-02-19T10:09:26.117Z,58.69
2023-02-19T10:11:58.459Z,58.61
2023-02-19T10:14:39.122Z,57.09
2023-02-19T10:17:06.573Z,56.95
2023-02-19T10:19:33.900Z,57.96
2023-02-19T10:22:02.467Z,58.25
2023-02-19T10:24:29.997Z,58.29
2023-02-19T10:26:56.543Z,59.73
2023-02-19T10:29:24.232Z,59.49
2023-02-19T10:32:23.390Z,59.52
2023-02-19T10:35:15.865Z,60.16
2023-02-19T10:37:48.746Z,60.81
2023-02-19T10:40:25.290Z,59.54
2023-02-19T10:43:00.776Z,58.60
2023-02-19T10:45:40.684Z,58.00
2023-02-19T10:48:24.540Z,58.09
2023-02-19T10:50:57.463Z,57.77
2023-02-19T10:53:41.538Z,58.83
2023-02-19T10:56:26.496Z,57.77
2023-02-19T10:58:53.424Z,59.06
2023-02-19T11:01:26.345Z,58.53
2023-02-19T11:04:14.422Z,60.46
2023-02-19T11:06:41.099Z,62.84
2023-02-19T11:09:28.330Z,58.82
2023-02-19T11:11:56.158Z,52.97
2023-02-19T11:14:24.867Z,53.29
2023-02-19T11:16:55.837Z,55.40
2023-02-19T11:19:37.552Z,55.48
2023-02-19T11:22:20.464Z,56.57
2023-02-19T11:24:50.075Z,56.24
2023-02-19T11:27:22.544Z,54.96
2023-02-19T11:29:49.191Z,55.48
2023-02-19T11:32:29.584Z,54.87
2023-02-19T11:35:16.995Z,55.45
2023-02-19T11:37:59.397Z,56.52
2023-02-19T11:41:03.978Z,54.38
2023-02-19T11:43:36.523Z,53.82
2023-02-19T11:46:15.261Z,53.39
2023-02-19T11:49:14.883Z,52.87
2023-02-19T11:51:53.471Z,52.85
2023-02-19T11:54:52.073Z,53.31
2023-02-19T11:57:47.076Z,54.58
2023-02-19T12:00:26.426Z,53.69
2023-02-19T12:03:24.214Z,54.37
2023-02-19T12:06:24.882Z,49.62
2023-02-19T12:09:06.360Z,52.00
2023-02-19T12:11:52.881Z,47.48
2023-02-19T12:14:58.117Z,48.25
2023-02-19T12:18:10.650Z,47.23
2023-02-19T12:20:55.071Z,48.73
2023-02-19T12:23:48.202Z,47.82
2023-02-19T12:26:14.845Z,48.26
2023-02-19T12:29:04.889Z,47.99
2023-02-19T12:31:56.236Z,47.54
2023-02-19T12:34:34.877Z,46.84
2023-02-19T12:37:39.746Z,45.62
2023-02-19T12:40:34.076Z,45.15
2023-02-19T12:43:19.960Z,44.36
2023-02-19T12:45:54.059Z,45.22
2023-02-19T12:48:39.180Z,43.91
2023-02-19T12:51:11.950Z,44.78
2023-02-19T12:53:43.580Z,43.36
2023-02-19T12:56:39.045Z,43.67
2023-02-19T12:59:20.209Z,44.82
2023-02-19T13:02:33.244Z,45.01
2023-02-19T13:05:12.913Z,45.61
2023-02-19T13:08:13.295Z,46.97
2023-02-19T13:11:30.646Z,47.27
2023-02-19T13:14:04.037Z,48.14
2023-02-19T13:16:32.906Z,48.57
2023-02-19T13:19:03.533Z,49.04
2023-02-19T13:21:52.582Z,49.11
2023-02-19T13:24:34.513Z,48.99
2023-02-19T13:27:31.531Z,47.62
2023-02-19T13:30:19.231Z,47.88
2023-02-19T13:32:53.617Z,48.53
2023-02-19T13:35:41.769Z,48.50
2023-02-19T13:38:11.709Z,48.42
2023-02-19T13:40:53.259Z,47.25
2023-02-19T13:43:34.724Z,46.13
2023-02-19T13:46:11.640Z,46.44
2023-02-19T13:48:41.338Z,45.44
2023-02-19T13:51:26.138Z,45.82
2023-02-19T13:53:59.390Z,45.01
2023-02-19T13:56:34.208Z,45.00
2023-02-19T13:59:22.674Z,45.35
2023-02-19T14:01:50.751Z,45.57
2023-02-19T14:05:08.269Z,45.99
2023-02-19T14:07:49.904Z,45.10
2023-02-19T14:10:57.050Z,46.08
2023-02-19T14:13:51.702Z,46.44
2023-02-19T14:16:41.662Z,46.59
2023-02-19T14:19:35.846Z,47.12
2023-02-19T14:22:41.780Z,46.81
2023-02-19T14:25:43.436Z,47.81
2023-02-19T14:28:10.029Z,48.04
2023-02-19T14:31:18.011Z,48.35
2023-02-19T14:34:25.735Z,48.81
2023-02-19T14:36:59.105Z,49.51
2023-02-19T14:39:33.309Z,49.93
2023-02-19T14:42:04.471Z,50.32
2023-02-19T14:44:41.537Z,50.59
2023-02-19T14:47:13.847Z,51.08
2023-02-19T14:49:55.146Z,51.13
2023-02-19T14:52:28.317Z,51.86
2023-02-19T14:55:03.326Z,52.03
2023-02-19T14:57:41.166Z,52.34
2023-02-19T15:00:34.012Z,52.09
2023-02-19T15:03:02.029Z,51.79
2023-02-19T15:05:37.153Z,52.74
2023-02-19T15:08:18.327Z,52.31
2023-02-19T15:10:45.966Z,52.38
2023-02-19T15:13:20.253Z,52.34
2023-02-19T15:15:47.042Z,52.18
2023-02-19T15:18:20.553Z,52.27
2023-02-19T15:20:47.540Z,51.89
2023-02-19T15:23:24.104Z,52.02
2023-02-19T15:25:51.337Z,52.07
2023-02-19T15:28:31.984Z,52.03
2023-02-19T15:30:58.584Z,52.26
2023-02-19T15:33:27.391Z,52.52
2023-02-19T15:36:08.779Z,52.82
2023-02-19T15:38:35.782Z,52.94
2023-02-19T15:41:02.953Z,52.80
2023-02-19T15:43:43.858Z,52.81
2023-02-19T15:46:22.036Z,53.27
2023-02-19T15:49:02.238Z,53.66
2023-02-19T15:51:42.925Z,53.92
2023-02-19T15:54:42.183Z,54.38
2023-02-19T15:57:16.696Z,54.41
2023-02-19T16:00:14.722Z,55.09
2023-02-19T16:02:41.417Z,55.55
2023-02-19T16:05:22.812Z,55.81
2023-02-19T16:08:16.386Z,56.28
2023-02-19T16:10:54.982Z,56.61
2023-02-19T16:13:30.816Z,56.47
2023-02-19T16:16:23.584Z,56.76
2023-02-19T16:18:51.696Z,56.92
2023-02-19T16:21:22.594Z,57.00
2023-02-19T16:23:54.183Z,57.04
2023-02-19T16:26:21.022Z,57.88
2023-02-19T16:28:56.667Z,57.60
2023-02-19T16:31:23.472Z,57.75
2023-02-19T16:33:50.734Z,57.82
2023-02-19T16:36:32.475Z,58.36
2023-02-19T16:39:08.009Z,58.08
2023-02-19T16:42:01.590Z,58.29
2023-02-19T16:44:28.135Z,58.41
2023-02-19T16:47:03.297Z,58.54
2023-02-19T16:49:30.285Z,58.77
2023-02-19T16:51:59.205Z,58.70
2023-02-19T16:54:25.754Z,58.96
2023-02-19T16:56:52.278Z,59.18
2023-02-19T16:59:18.897Z,59.25
2023-02-19T17:01:45.446Z,59.60
2023-02-19T17:04:12.759Z,59.51
2023-02-19T17:06:39.852Z,59.42
2023-02-19T17:09:08.086Z,58.90
2023-02-19T17:11:35.793Z,59.02
2023-02-19T17:14:02.667Z,59.02
2023-02-19T17:16:38.983Z,59.05
2023-02-19T17:19:12.901Z,58.99
2023-02-19T17:21:39.603Z,58.97
2023-02-19T17:24:06.425Z,59.00
2023-02-19T17:26:33.120Z,59.06
2023-02-19T17:29:02.284Z,59.12
2023-02-19T17:31:29.022Z,59.19
2023-02-19T17:33:55.906Z,59.50
2023-02-19T17:36:30.184Z,59.53
2023-02-19T17:38:58.804Z,59.54
2023-02-19T17:41:25.844Z,59.80
2023-02-19T17:43:52.991Z,59.62
2023-02-19T17:46:24.721Z,60.06
2023-02-19T17:48:52.076Z,60.22
2023-02-19T17:51:19.046Z,60.41
2023-02-19T17:53:48.279Z,60.48
2023-02-19T17:56:21.566Z,60.59
2023-02-19T17:58:50.827Z,61.17
2023-02-19T18:01:17.614Z,61.48
2023-02-19T18:03:44.414Z,61.82
2023-02-19T18:06:11.337Z,61.98
2023-02-19T18:08:38.736Z,62.02
2023-02-19T18:11:06.934Z,62.14
2023-02-19T18:13:34.140Z,62.08
2023-02-19T18:16:02.273Z,62.15
2023-02-19T18:18:29.888Z,62.16
2023-02-19T18:20:56.849Z,62.33
2023-02-19T18:23:23.799Z,63.08
2023-02-19T18:25:50.790Z,58.58
2023-02-19T18:28:17.802Z,54.94
2023-02-19T18:30:45.000Z,56.16
2023-02-19T18:33:12.752Z,57.50
2023-02-19T18:35:39.586Z,58.51
2023-02-19T18:38:06.522Z,59.42
2023-02-19T18:40:34.279Z,59.94
2023-02-19T18:43:01.010Z,60.70
2023-02-19T18:45:29.161Z,61.15
2023-02-19T18:47:55.893Z,61.37
2023-02-19T18:50:22.536Z,61.76
2023-02-19T18:52:49.628Z,62.17
2023-02-19T18:55:16.460Z,63.30
2023-02-19T18:57:43.650Z,60.20
2023-02-19T19:00:18.147Z,55.59
2023-02-19T19:02:51.283Z,56.20
2023-02-19T19:05:24.873Z,58.01
2023-02-19T19:07:54.726Z,59.45
2023-02-19T19:10:22.821Z,60.54
2023-02-19T19:12:50.360Z,61.49
2023-02-19T19:15:18.635Z,62.43
2023-02-19T19:17:47.153Z,62.76
2023-02-19T19:20:17.422Z,57.81
2023-02-19T19:22:44.256Z,56.72
2023-02-19T19:25:12.908Z,58.49
2023-02-19T19:28:01.345Z,59.75
2023-02-19T19:30:28.467Z,61.02
2023-02-19T19:32:57.916Z,61.99
2023-02-19T19:35:24.959Z,63.00
2023-02-19T19:37:54.356Z,60.69
2023-02-19T19:40:21.103Z,56.02
2023-02-19T19:42:51.842Z,56.64
2023-02-19T19:46:06.111Z,58.37
2023-02-19T19:48:32.962Z,60.25
2023-02-19T19:50:59.706Z,61.49
2023-02-19T19:53:26.690Z,62.45
2023-02-19T19:55:53.956Z,62.39
2023-02-19T19:58:24.149Z,57.49
2023-02-19T20:00:51.914Z,56.35
2023-02-19T20:03:19.564Z,58.26
2023-02-19T20:05:50.118Z,59.85
2023-02-19T20:08:17.761Z,61.07
2023-02-19T20:10:45.513Z,62.20
2023-02-19T20:13:17.073Z,63.11
2023-02-19T20:15:44.509Z,59.88
2023-02-19T20:18:11.535Z,55.61
2023-02-19T20:20:41.369Z,56.67
2023-02-19T20:23:08.778Z,58.60
2023-02-19T20:25:39.191Z,60.07
2023-02-19T20:28:06.008Z,61.49
2023-02-19T20:30:32.877Z,62.44
2023-02-19T20:32:59.699Z,62.53
2023-02-19T20:35:28.010Z,57.59
2023-02-19T20:37:55.174Z,56.84
2023-02-19T20:40:27.102Z,58.85
2023-02-19T20:42:53.832Z,60.24
2023-02-19T20:45:20.774Z,61.60
2023-02-19T20:47:47.993Z,62.88
2023-02-19T20:50:18.145Z,61.01
2023-02-19T20:52:46.126Z,56.05
2023-02-19T20:55:12.766Z,57.05
2023-02-19T20:57:39.326Z,58.89
2023-02-19T21:00:07.672Z,60.19
2023-02-19T21:02:47.998Z,61.40
2023-02-19T21:05:17.028Z,62.01
2023-02-19T21:07:43.936Z,63.43
2023-02-19T21:10:10.868Z,60.45
2023-02-19T21:12:37.471Z,55.82
2023-02-19T21:15:05.098Z,56.09
2023-02-19T21:17:32.005Z,57.93
2023-02-19T21:19:58.655Z,59.70
2023-02-19T21:22:25.204Z,60.84
2023-02-19T21:24:53.086Z,61.74
2023-02-19T21:27:22.600Z,62.94
2023-02-19T21:29:49.335Z,62.13
2023-02-19T21:32:16.138Z,56.83
2023-02-19T21:34:43.034Z,56.63
2023-02-19T21:37:09.955Z,58.39
2023-02-19T21:39:36.572Z,59.83
2023-02-19T21:42:03.323Z,61.41
2023-02-19T21:44:29.933Z,62.70
2023-02-19T21:46:57.021Z,62.36
2023-02-19T21:49:23.692Z,58.00
2023-02-19T21:51:50.417Z,56.70
2023-02-19T21:54:24.021Z,58.35
2023-02-19T21:56:52.292Z,60.22
2023-02-19T21:59:20.356Z,61.49
2023-02-19T22:01:47.475Z,63.04
2023-02-19T22:04:17.094Z,60.05
2023-02-19T22:06:44.349Z,56.29
2023-02-19T22:09:12.478Z,57.56
2023-02-19T22:11:39.381Z,59.34
2023-02-19T22:14:06.209Z,60.86
2023-02-19T22:16:32.982Z,61.89
2023-02-19T22:19:00.152Z,62.93
2023-02-19T22:21:33.496Z,59.12
2023-02-19T22:24:02.224Z,56.72
2023-02-19T22:26:33.149Z,58.57
2023-02-19T22:29:05.079Z,60.33
2023-02-19T22:31:32.778Z,61.56
2023-02-19T22:33:59.501Z,62.96
2023-02-19T22:36:32.702Z,60.50
2023-02-19T22:39:00.745Z,56.36
2023-02-19T22:41:27.707Z,57.37
2023-02-19T22:43:55.527Z,59.13
2023-02-19T22:46:25.361Z,60.69
2023-02-19T22:48:52.056Z,62.22
2023-02-19T22:51:21.288Z,62.57
2023-02-19T22:53:53.541Z,57.92
2023-02-19T22:56:24.653Z,56.34
2023-02-19T22:58:52.414Z,58.21
2023-02-19T23:01:20.103Z,59.98
2023-02-19T23:03:52.046Z,61.21
2023-02-19T23:06:27.302Z,62.52
2023-02-19T23:08:56.064Z,61.76
2023-02-19T23:11:29.017Z,56.65
2023-02-19T23:13:56.176Z,57.02
2023-02-19T23:16:23.324Z,58.89
2023-02-19T23:18:50.103Z,60.67
2023-02-19T23:21:17.780Z,61.67
2023-02-19T23:23:45.256Z,63.13
2023-02-19T23:26:13.985Z,60.00
2023-02-19T23:28:42.696Z,55.94
2023-02-19T23:31:09.889Z,57.04
2023-02-19T23:33:36.706Z,58.95
2023-02-19T23:36:04.016Z,60.03
2023-02-19T23:38:30.981Z,61.41
2023-02-19T23:40:58.190Z,62.44
2023-02-19T23:43:24.817Z,63.74
2023-02-19T23:45:51.743Z,60.44
2023-02-19T23:48:18.342Z,55.56
2023-02-19T23:50:45.194Z,56.49
2023-02-19T23:53:11.824Z,58.51
2023-02-19T23:55:38.295Z,59.94
2023-02-19T23:58:04.894Z,61.48
